sensor_id;sensor_type;location;lat;lon;timestamp;pressure;altitude;pressure_sealevel;temperature;humidity
63096;BME280;49184;55.596;37.770;2023-08-08T00:00:12;98855.75;;;22.70;62.01
63096;BME280;49184;55.596;37.770;2023-08-08T00:02:39;98874.38;;;22.84;61.93
63096;BME280;49184;55.596;37.770;2023-08-08T00:05:05;98851.00;;;22.63;61.89
63096;BME280;49184;55.596;37.770;2023-08-08T00:07:31;98869.25;;;22.79;61.72
63096;BME280;49184;55.596;37.770;2023-08-08T00:09:57;98861.72;;;22.72;61.94
63096;BME280;49184;55.596;37.770;2023-08-08T00:12:23;98859.72;;;22.76;61.87
63096;BME280;49184;55.596;37.770;2023-08-08T00:14:49;98851.34;;;22.76;61.69
63096;BME280;49184;55.596;37.770;2023-08-08T00:17:15;98830.31;;;22.64;61.80
63096;BME280;49184;55.596;37.770;2023-08-08T00:19:41;98850.94;;;22.78;61.59
63096;BME280;49184;55.596;37.770;2023-08-08T00:22:07;98814.81;;;22.60;61.83
63096;BME280;49184;55.596;37.770;2023-08-08T00:24:33;98840.22;;;22.72;61.98
63096;BME280;49184;55.596;37.770;2023-08-08T00:26:59;98843.78;;;22.77;61.64
63096;BME280;49184;55.596;37.770;2023-08-08T00:29:25;98834.59;;;22.80;61.72
63096;BME280;49184;55.596;37.770;2023-08-08T00:31:51;98830.66;;;22.73;62.02
63096;BME280;49184;55.596;37.770;2023-08-08T00:34:17;98818.78;;;22.66;61.93
63096;BME280;49184;55.596;37.770;2023-08-08T00:36:43;98821.94;;;22.64;61.99
63096;BME280;49184;55.596;37.770;2023-08-08T00:39:10;98807.25;;;22.60;62.14
63096;BME280;49184;55.596;37.770;2023-08-08T00:41:36;98825.88;;;22.74;62.39
63096;BME280;49184;55.596;37.770;2023-08-08T00:44:02;98806.00;;;22.65;62.24
63096;BME280;49184;55.596;37.770;2023-08-08T00:46:28;98826.66;;;22.74;62.15
63096;BME280;49184;55.596;37.770;2023-08-08T00:48:54;98830.69;;;22.70;62.26
63096;BME280;49184;55.596;37.770;2023-08-08T00:51:21;98842.63;;;22.70;62.69
63096;BME280;49184;55.596;37.770;2023-08-08T00:53:47;98844.97;;;22.79;62.97
63096;BME280;49184;55.596;37.770;2023-08-08T00:56:16;98828.69;;;22.67;64.60
63096;BME280;49184;55.596;37.770;2023-08-08T00:58:43;98800.50;;;22.54;65.75
63096;BME280;49184;55.596;37.770;2023-08-08T01:01:12;98786.25;;;22.41;66.61
63096;BME280;49184;55.596;37.770;2023-08-08T01:03:38;98771.56;;;22.34;67.32
63096;BME280;49184;55.596;37.770;2023-08-08T01:06:31;98768.47;;;22.17;67.14
63096;BME280;49184;55.596;37.770;2023-08-08T01:09:10;98790.78;;;22.03;67.87
63096;BME280;49184;55.596;37.770;2023-08-08T01:11:40;98782.41;;;22.03;67.54
63096;BME280;49184;55.596;37.770;2023-08-08T01:14:08;98774.47;;;21.98;67.79
63096;BME280;49184;55.596;37.770;2023-08-08T01:16:35;98778.84;;;21.92;68.37
63096;BME280;49184;55.596;37.770;2023-08-08T01:19:01;98808.25;;;22.03;67.82
63096;BME280;49184;55.596;37.770;2023-08-08T01:21:27;98801.13;;;21.99;68.44
63096;BME280;49184;55.596;37.770;2023-08-08T01:24:17;98792.78;;;21.99;67.28
63096;BME280;49184;55.596;37.770;2023-08-08T01:26:44;98772.13;;;21.89;67.29
63096;BME280;49184;55.596;37.770;2023-08-08T01:29:10;98803.47;;;22.04;67.27
63096;BME280;49184;55.596;37.770;2023-08-08T01:31:36;98786.78;;;22.04;67.44
63096;BME280;49184;55.596;37.770;2023-08-08T01:34:04;98776.06;;;21.99;67.04
63096;BME280;49184;55.596;37.770;2023-08-08T01:37:11;98792.34;;;22.08;67.18
63096;BME280;49184;55.596;37.770;2023-08-08T01:39:40;98763.38;;;21.91;66.72
63096;BME280;49184;55.596;37.770;2023-08-08T01:42:07;98782.00;;;22.01;67.19
63096;BME280;49184;55.596;37.770;2023-08-08T01:44:33;98772.13;;;21.93;67.17
63096;BME280;49184;55.596;37.770;2023-08-08T01:47:00;98783.25;;;21.93;67.14
63096;BME280;49184;55.596;37.770;2023-08-08T01:49:26;98782.00;;;22.01;66.79
63096;BME280;49184;55.596;37.770;2023-08-08T01:51:52;98785.22;;;21.99;66.57
63096;BME280;49184;55.596;37.770;2023-08-08T01:54:19;98772.13;;;21.93;66.50
63096;BME280;49184;55.596;37.770;2023-08-08T01:56:45;98770.50;;;21.92;66.50
63096;BME280;49184;55.596;37.770;2023-08-08T01:59:11;98785.59;;;22.01;66.62
63096;BME280;49184;55.596;37.770;2023-08-08T02:01:38;98774.91;;;21.89;66.51
63096;BME280;49184;55.596;37.770;2023-08-08T02:04:05;98776.91;;;21.89;66.92
63096;BME280;49184;55.596;37.770;2023-08-08T02:06:31;98766.56;;;21.86;66.89
63096;BME280;49184;55.596;37.770;2023-08-08T02:08:57;98780.81;;;21.98;66.92
63096;BME280;49184;55.596;37.770;2023-08-08T02:11:23;98783.63;;;21.95;66.71
63096;BME280;49184;55.596;37.770;2023-08-08T02:13:49;98800.69;;;22.04;66.18
63096;BME280;49184;55.596;37.770;2023-08-08T02:16:16;98782.44;;;21.96;66.77
63096;BME280;49184;55.596;37.770;2023-08-08T02:18:42;98788.78;;;22.03;65.98
63096;BME280;49184;55.596;37.770;2023-08-08T02:21:08;98800.66;;;22.11;66.01
63096;BME280;49184;55.596;37.770;2023-08-08T02:23:34;98785.59;;;22.01;66.16
63096;BME280;49184;55.596;37.770;2023-08-08T02:26:00;98791.94;;;22.09;67.97
63096;BME280;49184;55.596;37.770;2023-08-08T02:28:27;98788.00;;;21.96;68.04
63096;BME280;49184;55.596;37.770;2023-08-08T02:30:53;98774.88;;;21.96;68.05
63096;BME280;49184;55.596;37.770;2023-08-08T02:33:20;98791.13;;;22.05;67.78
63096;BME280;49184;55.596;37.770;2023-08-08T02:35:46;98752.28;;;21.76;67.97
63096;BME280;49184;55.596;37.770;2023-08-08T02:38:13;98751.13;;;21.67;68.14
63096;BME280;49184;55.596;37.770;2023-08-08T02:40:39;98796.75;;;21.91;67.82
63096;BME280;49184;55.596;37.770;2023-08-08T02:43:06;98785.25;;;21.81;68.18
63096;BME280;49184;55.596;37.770;2023-08-08T02:45:32;98770.59;;;21.70;68.22
63096;BME280;49184;55.596;37.770;2023-08-08T02:47:58;98773.78;;;21.72;68.14
63096;BME280;49184;55.596;37.770;2023-08-08T02:50:24;98770.56;;;21.77;68.12
63096;BME280;49184;55.596;37.770;2023-08-08T02:52:51;98770.97;;;21.79;67.81
63096;BME280;49184;55.596;37.770;2023-08-08T02:55:20;98769.00;;;21.76;67.56
63096;BME280;49184;55.596;37.770;2023-08-08T02:57:49;98781.25;;;21.93;67.27
63096;BME280;49184;55.596;37.770;2023-08-08T03:00:15;98774.50;;;21.91;66.76
63096;BME280;49184;55.596;37.770;2023-08-08T03:02:45;98805.06;;;22.05;66.43
63096;BME280;49184;55.596;37.770;2023-08-08T03:05:11;98794.72;;;22.09;66.48
63096;BME280;49184;55.596;37.770;2023-08-08T03:07:37;98791.94;;;22.09;66.49
63096;BME280;49184;55.596;37.770;2023-08-08T03:10:04;98807.44;;;22.21;65.91
63096;BME280;49184;55.596;37.770;2023-08-08T03:12:32;98791.94;;;22.16;65.17
63096;BME280;49184;55.596;37.770;2023-08-08T03:14:59;98801.81;;;22.35;65.90
63096;BME280;49184;55.596;37.770;2023-08-08T03:17:26;98794.28;;;22.25;65.45
63096;BME280;49184;55.596;37.770;2023-08-08T03:19:52;98803.00;;;22.31;65.57
63096;BME280;49184;55.596;37.770;2023-08-08T03:22:18;98805.41;;;22.32;65.98
63096;BME280;49184;55.596;37.770;2023-08-08T03:24:44;98785.13;;;22.24;65.76
63096;BME280;49184;55.596;37.770;2023-08-08T03:27:11;98791.88;;;22.31;64.98
63096;BME280;49184;55.596;37.770;2023-08-08T03:29:37;98798.22;;;22.35;64.85
63096;BME280;49184;55.596;37.770;2023-08-08T03:32:04;98797.44;;;22.34;64.62
63096;BME280;49184;55.596;37.770;2023-08-08T03:34:31;98786.31;;;22.31;64.23
63096;BME280;49184;55.596;37.770;2023-08-08T03:36:59;98802.94;;;22.48;64.47
63096;BME280;49184;55.596;37.770;2023-08-08T03:39:25;98781.88;;;22.40;63.98
63096;BME280;49184;55.596;37.770;2023-08-08T03:41:53;98793.00;;;22.44;63.88
63096;BME280;49184;55.596;37.770;2023-08-08T03:44:19;98788.22;;;22.44;64.57
63096;BME280;49184;55.596;37.770;2023-08-08T03:46:46;98804.91;;;22.48;63.88
63096;BME280;49184;55.596;37.770;2023-08-08T03:49:13;98810.47;;;22.51;63.59
63096;BME280;49184;55.596;37.770;2023-08-08T03:51:38;98812.13;;;22.45;63.93
63096;BME280;49184;55.596;37.770;2023-08-08T03:54:04;98827.16;;;22.59;64.33
63096;BME280;49184;55.596;37.770;2023-08-08T03:56:32;98829.56;;;22.57;65.11
63096;BME280;49184;55.596;37.770;2023-08-08T03:58:58;98844.66;;;22.63;64.06
63096;BME280;49184;55.596;37.770;2023-08-08T04:01:24;98813.66;;;22.54;64.47
63096;BME280;49184;55.596;37.770;2023-08-08T04:03:50;98820.78;;;22.58;65.75
63096;BME280;49184;55.596;37.770;2023-08-08T04:06:16;98832.75;;;22.55;66.18
63096;BME280;49184;55.596;37.770;2023-08-08T04:11:27;98827.66;;;22.39;67.76
63096;BME280;49184;55.596;37.770;2023-08-08T04:13:53;98842.72;;;22.49;68.66
63096;BME280;49184;55.596;37.770;2023-08-08T04:16:19;98852.25;;;22.48;68.16
63096;BME280;49184;55.596;37.770;2023-08-08T04:18:45;98834.06;;;22.29;69.93
63096;BME280;49184;55.596;37.770;2023-08-08T04:21:11;98833.66;;;22.31;70.44
63096;BME280;49184;55.596;37.770;2023-08-08T04:23:37;98831.66;;;22.27;68.56
63096;BME280;49184;55.596;37.770;2023-08-08T04:26:03;98824.91;;;22.25;71.24
63096;BME280;49184;55.596;37.770;2023-08-08T04:28:31;98843.97;;;22.34;70.71
63096;BME280;49184;55.596;37.770;2023-08-08T04:30:57;98831.69;;;22.24;70.62
63096;BME280;49184;55.596;37.770;2023-08-08T04:33:23;98820.16;;;22.25;71.33
63096;BME280;49184;55.596;37.770;2023-08-08T04:35:49;98843.59;;;22.35;71.33
63096;BME280;49184;55.596;37.770;2023-08-08T04:38:16;98848.34;;;22.35;71.74
63096;BME280;49184;55.596;37.770;2023-08-08T04:40:43;98838.78;;;22.39;72.09
63096;BME280;49184;55.596;37.770;2023-08-08T04:43:09;98836.78;;;22.40;72.03
63096;BME280;49184;55.596;37.770;2023-08-08T04:45:35;98830.03;;;22.41;72.71
63096;BME280;49184;55.596;37.770;2023-08-08T04:48:07;98845.09;;;22.50;71.55
63096;BME280;49184;55.596;37.770;2023-08-08T04:50:32;98843.06;;;22.58;72.29
63096;BME280;49184;55.596;37.770;2023-08-08T04:52:58;98840.28;;;22.58;73.72
63096;BME280;49184;55.596;37.770;2023-08-08T04:55:24;98847.00;;;22.68;72.55
63096;BME280;49184;55.596;37.770;2023-08-08T04:57:50;98838.22;;;22.73;72.79
63096;BME280;49184;55.596;37.770;2023-08-08T05:00:16;98845.34;;;22.85;72.18
63096;BME280;49184;55.596;37.770;2023-08-08T05:02:43;98852.44;;;22.96;71.65
63096;BME280;49184;55.596;37.770;2023-08-08T05:05:08;98827.38;;;22.89;72.07
63096;BME280;49184;55.596;37.770;2023-08-08T05:07:34;98845.25;;;23.03;71.93
63096;BME280;49184;55.596;37.770;2023-08-08T05:10:03;98845.16;;;23.13;69.98
63096;BME280;49184;55.596;37.770;2023-08-08T05:12:29;98859.06;;;23.20;69.68
63096;BME280;49184;55.596;37.770;2023-08-08T05:14:55;98839.97;;;23.15;69.95
63096;BME280;49184;55.596;37.770;2023-08-08T05:17:21;98835.28;;;23.05;70.25
63096;BME280;49184;55.596;37.770;2023-08-08T05:19:47;98830.13;;;23.00;68.75
63096;BME280;49184;55.596;37.770;2023-08-08T05:22:13;98845.66;;;23.05;67.74
63096;BME280;49184;55.596;37.770;2023-08-08T05:24:39;98837.28;;;23.05;70.79
63096;BME280;49184;55.596;37.770;2023-08-08T05:27:05;98840.03;;;23.08;70.62
63096;BME280;49184;55.596;37.770;2023-08-08T05:29:31;98825.72;;;23.06;70.81
63096;BME280;49184;55.596;37.770;2023-08-08T05:31:57;98843.97;;;23.18;70.79
63096;BME280;49184;55.596;37.770;2023-08-08T05:34:26;98850.25;;;23.26;69.40
63096;BME280;49184;55.596;37.770;2023-08-08T05:36:52;98851.84;;;23.27;69.25
63096;BME280;49184;55.596;37.770;2023-08-08T05:39:17;98853.41;;;23.31;69.48
63096;BME280;49184;55.596;37.770;2023-08-08T05:41:43;98844.31;;;23.20;70.97
63096;BME280;49184;55.596;37.770;2023-08-08T05:44:09;98847.19;;;23.09;69.31
63096;BME280;49184;55.596;37.770;2023-08-08T05:46:35;98862.28;;;23.15;70.71
63096;BME280;49184;55.596;37.770;2023-08-08T05:49:01;98846.06;;;23.00;70.06
63096;BME280;49184;55.596;37.770;2023-08-08T05:51:27;98842.50;;;22.95;71.19
63096;BME280;49184;55.596;37.770;2023-08-08T05:53:53;98849.22;;;23.05;71.66
63096;BME280;49184;55.596;37.770;2023-08-08T05:56:19;98846.38;;;23.12;71.48
63096;BME280;49184;55.596;37.770;2023-08-08T05:58:45;98841.97;;;23.18;71.15
63096;BME280;49184;55.596;37.770;2023-08-08T06:01:12;98860.19;;;23.30;70.04
63096;BME280;49184;55.596;37.770;2023-08-08T06:03:38;98854.91;;;23.43;70.40
63096;BME280;49184;55.596;37.770;2023-08-08T06:06:04;98856.00;;;23.56;68.87
63096;BME280;49184;55.596;37.770;2023-08-08T06:08:30;98870.19;;;23.76;68.30
63096;BME280;49184;55.596;37.770;2023-08-08T06:10:57;98847.50;;;23.71;66.71
63096;BME280;49184;55.596;37.770;2023-08-08T06:13:25;98860.13;;;23.86;68.13
63096;BME280;49184;55.596;37.770;2023-08-08T06:15:50;98839.47;;;23.80;66.45
63096;BME280;49184;55.596;37.770;2023-08-08T06:18:16;98852.91;;;23.92;65.33
63096;BME280;49184;55.596;37.770;2023-08-08T06:20:43;98859.97;;;24.00;65.83
63096;BME280;49184;55.596;37.770;2023-08-08T06:23:10;98862.66;;;24.14;66.27
63096;BME280;49184;55.596;37.770;2023-08-08T06:25:36;98840.81;;;24.02;66.09
63096;BME280;49184;55.596;37.770;2023-08-08T06:28:04;98846.03;;;24.00;65.67
63096;BME280;49184;55.596;37.770;2023-08-08T06:30:33;98854.66;;;24.13;64.37
63096;BME280;49184;55.596;37.770;2023-08-08T06:32:59;98875.19;;;24.33;64.83
63096;BME280;49184;55.596;37.770;2023-08-08T06:35:25;98863.22;;;24.33;63.95
63096;BME280;49184;55.596;37.770;2023-08-08T06:37:50;98852.53;;;24.28;64.92
63096;BME280;49184;55.596;37.770;2023-08-08T06:40:16;98856.81;;;24.36;63.20
63096;BME280;49184;55.596;37.770;2023-08-08T06:42:42;98865.47;;;24.49;63.71
63096;BME280;49184;55.596;37.770;2023-08-08T06:45:08;98862.66;;;24.49;63.46
63096;BME280;49184;55.596;37.770;2023-08-08T06:47:35;98876.88;;;24.61;62.41
63096;BME280;49184;55.596;37.770;2023-08-08T06:50:01;98859.69;;;24.63;63.48
63096;BME280;49184;55.596;37.770;2023-08-08T06:52:27;98869.94;;;24.73;62.41
63096;BME280;49184;55.596;37.770;2023-08-08T06:54:53;98859.91;;;24.76;63.24
63096;BME280;49184;55.596;37.770;2023-08-08T06:57:19;98869.31;;;24.89;61.94
63096;BME280;49184;55.596;37.770;2023-08-08T06:59:44;98873.97;;;25.30;61.45
63096;BME280;49184;55.596;37.770;2023-08-08T07:02:16;98871.44;;;25.12;59.01
63096;BME280;49184;55.596;37.770;2023-08-08T07:04:42;98847.63;;;25.00;59.96
63096;BME280;49184;55.596;37.770;2023-08-08T07:07:09;98860.50;;;25.21;59.56
63096;BME280;49184;55.596;37.770;2023-08-08T07:09:35;98852.84;;;25.25;60.06
63096;BME280;49184;55.596;37.770;2023-08-08T07:12:07;98849.00;;;25.16;60.85
63096;BME280;49184;55.596;37.770;2023-08-08T07:14:33;98851.25;;;24.97;59.73
63096;BME280;49184;55.596;37.770;2023-08-08T07:16:59;98887.59;;;24.97;60.71
63096;BME280;49184;55.596;37.770;2023-08-08T07:19:25;98878.84;;;24.95;60.08
63096;BME280;49184;55.596;37.770;2023-08-08T07:21:51;98865.59;;;24.99;60.43
63096;BME280;49184;55.596;37.770;2023-08-08T07:24:17;98873.88;;;25.06;60.90
63096;BME280;49184;55.596;37.770;2023-08-08T07:26:44;98877.66;;;24.93;61.09
63096;BME280;49184;55.596;37.770;2023-08-08T07:29:10;98902.34;;;25.28;60.37
63096;BME280;49184;55.596;37.770;2023-08-08T07:31:36;98896.44;;;25.50;59.06
63096;BME280;49184;55.596;37.770;2023-08-08T07:34:05;98874.97;;;25.43;59.44
63096;BME280;49184;55.596;37.770;2023-08-08T07:36:31;98878.22;;;25.38;60.47
63096;BME280;49184;55.596;37.770;2023-08-08T07:38:57;98873.16;;;25.29;60.48
63096;BME280;49184;55.596;37.770;2023-08-08T07:41:28;98864.75;;;25.29;60.57
63096;BME280;49184;55.596;37.770;2023-08-08T07:43:55;98885.25;;;25.50;60.41
63096;BME280;49184;55.596;37.770;2023-08-08T07:46:21;98885.25;;;25.50;59.19
63096;BME280;49184;55.596;37.770;2023-08-08T07:48:48;98870.88;;;25.48;58.81
63096;BME280;49184;55.596;37.770;2023-08-08T07:51:14;98878.09;;;25.45;59.29
63096;BME280;49184;55.596;37.770;2023-08-08T07:53:40;98885.00;;;25.41;59.08
63096;BME280;49184;55.596;37.770;2023-08-08T07:56:07;98877.19;;;25.28;59.98
63096;BME280;49184;55.596;37.770;2023-08-08T07:58:33;98897.09;;;25.34;59.89
63096;BME280;49184;55.596;37.770;2023-08-08T08:00:59;98897.53;;;25.29;61.11
63096;BME280;49184;55.596;37.770;2023-08-08T08:03:26;98880.03;;;25.25;61.57
63096;BME280;49184;55.596;37.770;2023-08-08T08:05:53;98894.41;;;25.27;60.48
63096;BME280;49184;55.596;37.770;2023-08-08T08:08:20;98905.53;;;25.30;61.36
63096;BME280;49184;55.596;37.770;2023-08-08T08:10:47;98899.56;;;25.28;60.71
63096;BME280;49184;55.596;37.770;2023-08-08T08:13:15;98892.84;;;25.22;61.00
63096;BME280;49184;55.596;37.770;2023-08-08T08:15:41;98884.09;;;25.20;61.35
63096;BME280;49184;55.596;37.770;2023-08-08T08:18:07;98898.78;;;25.28;60.42
63096;BME280;49184;55.596;37.770;2023-08-08T08:20:33;98895.25;;;25.24;60.31
63096;BME280;49184;55.596;37.770;2023-08-08T08:22:59;98912.75;;;25.28;62.86
63096;BME280;49184;55.596;37.770;2023-08-08T08:25:25;98893.16;;;25.01;65.60
63096;BME280;49184;55.596;37.770;2023-08-08T08:27:51;98893.28;;;24.90;67.08
63096;BME280;49184;55.596;37.770;2023-08-08T08:30:17;98914.72;;;25.00;67.23
63096;BME280;49184;55.596;37.770;2023-08-08T08:32:46;98876.66;;;25.06;66.42
63096;BME280;49184;55.596;37.770;2023-08-08T08:35:22;98907.19;;;25.51;67.19
63096;BME280;49184;55.596;37.770;2023-08-08T08:37:54;98913.06;;;25.61;66.89
63096;BME280;49184;55.596;37.770;2023-08-08T08:40:20;98889.41;;;25.38;66.93
63096;BME280;49184;55.596;37.770;2023-08-08T08:42:47;98930.97;;;25.67;66.99
63096;BME280;49184;55.596;37.770;2023-08-08T08:45:14;98899.06;;;25.61;66.40
63096;BME280;49184;55.596;37.770;2023-08-08T08:47:42;98893.22;;;25.51;64.09
63096;BME280;49184;55.596;37.770;2023-08-08T08:50:11;98923.16;;;25.78;64.90
63096;BME280;49184;55.596;37.770;2023-08-08T08:52:40;98929.88;;;26.08;64.29
63096;BME280;49184;55.596;37.770;2023-08-08T08:55:09;98904.34;;;25.78;61.35
63096;BME280;49184;55.596;37.770;2023-08-08T08:57:36;98919.75;;;26.37;60.91
63096;BME280;49184;55.596;37.770;2023-08-08T09:00:03;98917.06;;;26.30;61.83
63096;BME280;49184;55.596;37.770;2023-08-08T09:02:35;98931.22;;;26.23;60.76
63096;BME280;49184;55.596;37.770;2023-08-08T09:05:05;98925.56;;;26.27;61.57
63096;BME280;49184;55.596;37.770;2023-08-08T09:07:35;98921.81;;;26.57;59.18
63096;BME280;49184;55.596;37.770;2023-08-08T09:10:04;98926.09;;;26.81;58.47
63096;BME280;49184;55.596;37.770;2023-08-08T09:12:31;98909.56;;;26.67;58.05
63096;BME280;49184;55.596;37.770;2023-08-08T09:14:58;98927.72;;;26.99;58.23
63096;BME280;49184;55.596;37.770;2023-08-08T09:17:28;98918.69;;;26.91;57.21
63096;BME280;49184;55.596;37.770;2023-08-08T09:19:54;98942.66;;;26.96;57.53
63096;BME280;49184;55.596;37.770;2023-08-08T09:22:21;98941.41;;;26.97;57.81
63096;BME280;49184;55.596;37.770;2023-08-08T09:24:48;98912.84;;;26.82;55.65
63096;BME280;49184;55.596;37.770;2023-08-08T09:27:14;98928.94;;;27.17;55.76
63096;BME280;49184;55.596;37.770;2023-08-08T09:29:40;98915.56;;;27.25;56.33
63096;BME280;49184;55.596;37.770;2023-08-08T09:32:09;98931.44;;;27.48;55.96
63096;BME280;49184;55.596;37.770;2023-08-08T09:34:36;98939.97;;;27.45;53.38
63096;BME280;49184;55.596;37.770;2023-08-08T09:37:02;98942.00;;;27.60;54.61
63096;BME280;49184;55.596;37.770;2023-08-08T09:39:32;98939.38;;;27.53;52.95
63096;BME280;49184;55.596;37.770;2023-08-08T09:41:58;98940.75;;;27.61;56.08
63096;BME280;49184;55.596;37.770;2023-08-08T09:44:26;98923.94;;;27.45;54.33
63096;BME280;49184;55.596;37.770;2023-08-08T09:46:56;98940.91;;;27.38;53.78
63096;BME280;49184;55.596;37.770;2023-08-08T09:49:23;98916.78;;;27.24;54.55
63096;BME280;49184;55.596;37.770;2023-08-08T09:51:49;98918.78;;;27.24;54.28
63096;BME280;49184;55.596;37.770;2023-08-08T09:54:15;98938.72;;;27.29;52.98
63096;BME280;49184;55.596;37.770;2023-08-08T09:56:43;98938.88;;;27.22;54.37
63096;BME280;49184;55.596;37.770;2023-08-08T09:59:10;98946.28;;;27.32;56.20
63096;BME280;49184;55.596;37.770;2023-08-08T10:01:40;98946.44;;;27.41;56.82
63096;BME280;49184;55.596;37.770;2023-08-08T10:04:08;98945.16;;;27.46;56.36
63096;BME280;49184;55.596;37.770;2023-08-08T10:06:35;98955.16;;;27.47;56.27
63096;BME280;49184;55.596;37.770;2023-08-08T10:09:02;98953.66;;;27.43;55.23
63096;BME280;49184;55.596;37.770;2023-08-08T10:11:31;98948.94;;;27.56;56.29
63096;BME280;49184;55.596;37.770;2023-08-08T10:14:01;98956.56;;;27.55;55.87
63096;BME280;49184;55.596;37.770;2023-08-08T10:16:28;98940.81;;;27.41;56.63
63096;BME280;49184;55.596;37.770;2023-08-08T10:19:02;98953.41;;;27.53;57.66
63096;BME280;49184;55.596;37.770;2023-08-08T10:21:36;98946.75;;;27.63;58.80
63096;BME280;49184;55.596;37.770;2023-08-08T10:24:07;98956.88;;;27.77;54.94
63096;BME280;49184;55.596;37.770;2023-08-08T10:26:34;98938.50;;;27.73;54.99
63096;BME280;49184;55.596;37.770;2023-08-08T10:29:01;98937.47;;;27.83;58.89
63096;BME280;49184;55.596;37.770;2023-08-08T10:31:33;98941.16;;;27.96;55.57
63096;BME280;49184;55.596;37.770;2023-08-08T10:34:05;98937.56;;;27.96;55.85
63096;BME280;49184;55.596;37.770;2023-08-08T10:36:49;98933.50;;;27.97;55.13
63096;BME280;49184;55.596;37.770;2023-08-08T10:39:17;98951.69;;;27.92;55.78
63096;BME280;49184;55.596;37.770;2023-08-08T10:42:08;98952.50;;;27.93;54.96
63096;BME280;49184;55.596;37.770;2023-08-08T10:44:40;98940.09;;;27.90;55.24
63096;BME280;49184;55.596;37.770;2023-08-08T10:47:11;98961.69;;;28.09;55.48
63096;BME280;49184;55.596;37.770;2023-08-08T10:49:42;98963.88;;;28.18;55.30
63096;BME280;49184;55.596;37.770;2023-08-08T10:52:13;98967.03;;;28.20;55.42
63096;BME280;49184;55.596;37.770;2023-08-08T10:54:52;98962.28;;;28.17;54.24
63096;BME280;49184;55.596;37.770;2023-08-08T10:57:23;98965.38;;;28.06;53.07
63096;BME280;49184;55.596;37.770;2023-08-08T10:59:50;98973.22;;;27.82;55.12
63096;BME280;49184;55.596;37.770;2023-08-08T11:02:16;98972.16;;;27.76;56.53
63096;BME280;49184;55.596;37.770;2023-08-08T11:04:44;98958.06;;;27.60;56.50
63096;BME280;49184;55.596;37.770;2023-08-08T11:07:10;98969.09;;;27.51;55.60
63096;BME280;49184;55.596;37.770;2023-08-08T11:09:36;98948.03;;;27.43;56.46
63096;BME280;49184;55.596;37.770;2023-08-08T11:12:03;98975.41;;;27.55;56.38
63096;BME280;49184;55.596;37.770;2023-08-08T11:14:29;98976.31;;;27.52;54.99
63096;BME280;49184;55.596;37.770;2023-08-08T11:16:59;98974.47;;;27.45;55.28
63096;BME280;49184;55.596;37.770;2023-08-08T11:19:25;98978.84;;;27.46;55.24
63096;BME280;49184;55.596;37.770;2023-08-08T11:21:51;98987.50;;;27.35;54.52
63096;BME280;49184;55.596;37.770;2023-08-08T11:24:17;98989.25;;;27.29;56.82
63096;BME280;49184;55.596;37.770;2023-08-08T11:26:45;98979.47;;;27.17;57.35
63096;BME280;49184;55.596;37.770;2023-08-08T11:29:14;98979.13;;;27.15;57.79
63096;BME280;49184;55.596;37.770;2023-08-08T11:31:41;98966.13;;;27.02;56.58
63096;BME280;49184;55.596;37.770;2023-08-08T11:34:09;98974.06;;;27.07;57.83
63096;BME280;49184;55.596;37.770;2023-08-08T11:36:37;98974.50;;;27.05;55.46
63096;BME280;49184;55.596;37.770;2023-08-08T11:39:04;98989.66;;;27.08;56.87
63096;BME280;49184;55.596;37.770;2023-08-08T11:41:35;98985.50;;;26.96;57.60
63096;BME280;49184;55.596;37.770;2023-08-08T11:44:06;98992.69;;;26.97;57.71
63096;BME280;49184;55.596;37.770;2023-08-08T11:46:44;98977.28;;;26.85;55.89
63096;BME280;49184;55.596;37.770;2023-08-08T11:49:14;98978.19;;;26.82;57.32
63096;BME280;49184;55.596;37.770;2023-08-08T11:51:48;98970.69;;;26.76;56.90
63096;BME280;49184;55.596;37.770;2023-08-08T11:54:37;98986.84;;;26.88;58.03
63096;BME280;49184;55.596;37.770;2023-08-08T11:57:05;98962.22;;;26.79;57.96
63096;BME280;49184;55.596;37.770;2023-08-08T11:59:33;98970.56;;;26.83;58.64
63096;BME280;49184;55.596;37.770;2023-08-08T12:01:59;98971.69;;;26.85;57.90
63096;BME280;49184;55.596;37.770;2023-08-08T12:04:26;98984.44;;;26.90;58.32
63096;BME280;49184;55.596;37.770;2023-08-08T12:07:00;98988.88;;;27.07;58.95
63096;BME280;49184;55.596;37.770;2023-08-08T12:09:31;98978.81;;;27.10;58.99
63096;BME280;49184;55.596;37.770;2023-08-08T12:12:04;98985.00;;;27.21;58.00
63096;BME280;49184;55.596;37.770;2023-08-08T12:14:37;98967.03;;;27.19;59.01
63096;BME280;49184;55.596;37.770;2023-08-08T12:17:05;98985.19;;;27.30;57.90
63096;BME280;49184;55.596;37.770;2023-08-08T12:19:31;98966.78;;;27.29;58.60
63096;BME280;49184;55.596;37.770;2023-08-08T12:21:57;98976.56;;;27.57;57.68
63096;BME280;49184;55.596;37.770;2023-08-08T12:24:24;98974.66;;;27.71;57.62
63096;BME280;49184;55.596;37.770;2023-08-08T12:26:51;98961.84;;;27.70;55.51
63096;BME280;49184;55.596;37.770;2023-08-08T12:29:17;98982.56;;;27.76;56.49
63096;BME280;49184;55.596;37.770;2023-08-08T12:31:43;98981.28;;;27.80;57.97
63096;BME280;49184;55.596;37.770;2023-08-08T12:34:10;98974.25;;;27.89;55.29
63096;BME280;49184;55.596;37.770;2023-08-08T12:36:36;98969.94;;;28.00;55.68
63096;BME280;49184;55.596;37.770;2023-08-08T12:39:02;98989.28;;;28.15;56.12
63096;BME280;49184;55.596;37.770;2023-08-08T12:41:28;98996.75;;;28.21;55.42
63096;BME280;49184;55.596;37.770;2023-08-08T12:43:55;98984.88;;;28.14;55.96
63096;BME280;49184;55.596;37.770;2023-08-08T12:46:21;98997.06;;;28.23;56.50
63096;BME280;49184;55.596;37.770;2023-08-08T12:48:47;98978.72;;;28.19;55.68
63096;BME280;49184;55.596;37.770;2023-08-08T12:51:13;98993.19;;;28.33;55.35
63096;BME280;49184;55.596;37.770;2023-08-08T12:53:41;98972.81;;;28.29;55.92